Time;durP1;ratioP1;P1;durP2;ratioP2;P2;SDS_P1;SDS_P2;PMS_P1;PMS_P2;Temp;Humidity;BMP_temperature;BMP_pressure;BME280_temperature;BME280_humidity;BME280_pressure;Samples;Min_cycle;Max_cycle;Signal;HPM_P1;HPM_P2
2021/12/19 00:02:44;;;;;;;7.83;5.60;;;7.00;81.40;;;;;;5121978;27;20195;-74
2021/12/19 00:10:42;;;;;;;11.60;5.40;;;6.90;81.30;;;;;;5119991;27;20255;-74
2021/12/19 00:13:12;;;;;;;8.27;4.90;;;6.80;81.10;;;;;;5122969;27;20199;-74
2021/12/19 00:15:41;;;;;;;9.00;4.83;;;6.80;81.20;;;;;;5123349;27;20192;-74
2021/12/19 00:18:10;;;;;;;9.00;5.00;;;6.70;81.40;;;;;;5123308;27;20192;-74
2021/12/19 00:20:39;;;;;;;9.10;4.90;;;6.70;81.50;;;;;;5124802;27;20185;-75
2021/12/19 00:23:28;;;;;;;8.73;4.40;;;6.60;81.60;;;;;;5123258;27;20193;-75
2021/12/19 00:25:57;;;;;;;8.57;4.80;;;6.50;81.90;;;;;;5123327;27;20212;-74
2021/12/19 00:28:25;;;;;;;10.53;4.83;;;6.50;82.20;;;;;;5124421;27;20189;-74
2021/12/19 00:30:54;;;;;;;7.70;4.27;;;6.40;82.30;;;;;;5125508;27;20196;-74
2021/12/19 00:33:23;;;;;;;8.30;4.57;;;6.40;82.30;;;;;;5125572;27;20201;-74
2021/12/19 00:35:52;;;;;;;7.37;4.50;;;6.30;82.40;;;;;;5122424;27;20287;-74
2021/12/19 00:38:20;;;;;;;8.53;4.67;;;6.30;82.50;;;;;;5122101;27;20189;-75
2021/12/19 00:40:49;;;;;;;8.67;4.90;;;6.20;82.60;;;;;;5124404;27;20724;-74
2021/12/19 00:43:25;;;;;;;7.30;4.70;;;6.20;83.40;;;;;;5123898;27;20184;-74
2021/12/19 00:45:54;;;;;;;7.70;4.40;;;6.20;82.70;;;;;;5123842;27;20564;-74
2021/12/19 00:48:24;;;;;;;9.60;5.20;;;6.10;82.70;;;;;;5121684;27;20208;-74
2021/12/19 00:50:52;;;;;;;12.27;5.27;;;6.10;82.70;;;;;;5119822;27;20192;-74
2021/12/19 00:53:21;;;;;;;9.37;4.97;;;6.10;82.80;;;;;;5123069;27;20192;-74
2021/12/19 00:55:49;;;;;;;7.90;4.17;;;6.10;83.00;;;;;;5123154;27;20192;-74
2021/12/19 00:58:18;;;;;;;7.70;4.87;;;6.00;82.80;;;;;;5119601;27;20184;-74
2021/12/19 01:00:46;;;;;;;8.63;4.80;;;6.00;82.80;;;;;;5117686;27;20209;-74
2021/12/19 01:03:15;;;;;;;7.20;4.27;;;6.00;82.80;;;;;;5113425;27;20327;-74
2021/12/19 01:05:46;;;;;;;8.73;5.05;;;6.00;82.90;;;;;;5116721;27;20796;-74
2021/12/19 01:08:15;;;;;;;8.60;4.60;;;5.90;83.10;;;;;;5122328;27;20186;-74
2021/12/19 01:10:45;;;;;;;7.10;4.07;;;5.90;83.10;;;;;;5119827;27;20196;-74
2021/12/19 01:13:15;;;;;;;7.70;4.40;;;5.90;83.80;;;;;;5122171;27;20848;-74
2021/12/19 01:15:44;;;;;;;8.23;4.40;;;5.90;83.00;;;;;;5121837;27;20200;-74
2021/12/19 01:18:12;;;;;;;9.90;4.80;;;5.80;83.00;;;;;;5120598;27;20262;-74
2021/12/19 01:20:42;;;;;;;11.00;5.30;;;5.90;83.00;;;;;;5121126;27;20749;-74
2021/12/19 01:23:13;;;;;;;7.20;4.23;;;5.80;82.90;;;;;;5119643;27;20637;-74
2021/12/19 01:25:42;;;;;;;8.83;4.47;;;5.80;83.00;;;;;;5127897;27;20199;-74
2021/12/19 01:28:11;;;;;;;8.13;4.50;;;5.80;82.90;;;;;;5124008;27;20557;-74
2021/12/19 01:30:39;;;;;;;6.70;4.57;;;5.80;82.90;;;;;;5115868;27;20196;-74
2021/12/19 01:33:08;;;;;;;9.10;4.93;;;5.80;82.80;;;;;;5119371;27;20195;-74
2021/12/19 01:35:37;;;;;;;9.13;5.07;;;5.80;82.80;;;;;;5111841;27;20634;-74
2021/12/19 01:38:05;;;;;;;9.27;4.97;;;5.80;82.80;;;;;;5120567;27;20631;-74
2021/12/19 01:40:35;;;;;;;7.73;4.33;;;5.80;82.80;;;;;;5122867;27;20196;-75
2021/12/19 01:43:04;;;;;;;9.07;4.53;;;5.80;82.80;;;;;;5122402;27;20192;-74
2021/12/19 01:45:37;;;;;;;8.70;4.67;;;5.80;82.70;;;;;;5121190;27;20224;-75
2021/12/19 01:48:09;;;;;;;12.33;4.60;;;5.80;82.60;;;;;;5131210;27;20184;-75
2021/12/19 01:50:38;;;;;;;10.87;5.30;;;5.80;82.70;;;;;;5120874;27;20246;-76
2021/12/19 01:53:10;;;;;;;8.50;4.73;;;5.80;82.70;;;;;;5122845;28;20238;-75
2021/12/19 01:55:42;;;;;;;9.33;5.27;;;5.80;82.70;;;;;;5118638;27;20196;-75
2021/12/19 01:58:11;;;;;;;10.37;5.27;;;5.80;82.60;;;;;;5121259;28;20204;-74
2021/12/19 02:00:42;;;;;;;9.00;4.23;;;5.80;82.50;;;;;;5116966;27;20192;-75
2021/12/19 02:03:11;;;;;;;10.60;5.60;;;5.90;82.70;;;;;;5122353;27;20269;-74
2021/12/19 02:05:40;;;;;;;8.67;5.10;;;5.90;82.50;;;;;;5112519;27;20193;-75
2021/12/19 02:08:10;;;;;;;9.17;5.40;;;5.90;82.50;;;;;;5119501;28;20196;-75
2021/12/19 02:10:41;;;;;;;8.93;4.47;;;5.90;82.50;;;;;;5121696;27;20595;-75
2021/12/19 02:13:11;;;;;;;9.63;5.00;;;5.90;82.50;;;;;;5123843;27;20261;-74
2021/12/19 02:15:42;;;;;;;8.93;5.57;;;5.90;82.70;;;;;;5122147;27;20180;-74
2021/12/19 02:18:13;;;;;;;10.43;5.57;;;5.90;82.70;;;;;;5121053;27;20200;-75
2021/12/19 02:20:47;;;;;;;12.10;5.57;;;5.80;83.00;;;;;;5119111;27;20562;-74
2021/12/19 02:23:15;;;;;;;12.27;5.77;;;5.80;83.20;;;;;;5116969;27;21039;-74
2021/12/19 02:25:43;;;;;;;14.20;6.63;;;5.90;83.30;;;;;;5122045;27;20189;-74
2021/12/19 02:28:13;;;;;;;10.60;5.50;;;5.80;83.40;;;;;;5117000;27;20200;-74
2021/12/19 02:30:41;;;;;;;16.53;5.70;;;5.80;83.40;;;;;;5118646;27;20193;-74
2021/12/19 02:33:13;;;;;;;19.70;7.03;;;5.80;83.50;;;;;;5134158;27;20184;-74
2021/12/19 02:35:48;;;;;;;21.57;6.07;;;5.80;83.50;;;;;;5114048;27;20188;-76
2021/12/19 02:39:05;;;;;;;22.23;6.90;;;5.70;83.70;;;;;;5120818;27;20208;-74
2021/12/19 02:49:37;;;;;;;23.37;7.33;;;5.60;84.10;;;;;;5125923;27;20191;-75
2021/12/19 02:52:13;;;;;;;24.13;7.23;;;5.50;84.10;;;;;;5121340;27;20191;-74
2021/12/19 02:54:42;;;;;;;22.70;7.57;;;5.50;84.60;;;;;;5126627;27;20192;-74
2021/12/19 02:57:10;;;;;;;34.07;9.13;;;5.50;84.70;;;;;;5125149;27;20646;-74
2021/12/19 02:59:39;;;;;;;19.53;6.10;;;5.50;84.60;;;;;;5126099;27;20751;-74
2021/12/19 03:02:07;;;;;;;22.50;6.97;;;5.50;84.80;;;;;;5125002;27;20541;-75
2021/12/19 03:04:36;;;;;;;26.03;6.57;;;5.60;84.70;;;;;;5125322;27;20444;-75
2021/12/19 03:07:05;;;;;;;18.93;7.17;;;5.60;84.40;;;;;;5114848;27;20649;-75
2021/12/19 03:09:53;;;;;;;22.60;5.87;;;5.60;84.10;;;;;;5124237;27;20203;-74
2021/12/19 03:12:32;;;;;;;17.00;6.70;;;5.50;84.00;;;;;;5114062;27;20191;-75
2021/12/19 03:17:59;;;;;;;22.87;6.97;;;5.40;84.00;;;;;;5123935;27;20290;-75
2021/12/19 03:20:28;;;;;;;13.93;6.03;;;5.40;84.20;;;;;;5115273;27;20223;-74
2021/12/19 03:22:59;;;;;;;24.60;6.93;;;5.30;84.20;;;;;;5123287;27;20196;-75
2021/12/19 03:25:30;;;;;;;18.77;6.27;;;5.30;84.20;;;;;;5115550;27;20191;-74
2021/12/19 03:28:00;;;;;;;19.33;6.70;;;5.30;84.20;;;;;;5118263;27;20270;-74
2021/12/19 03:30:28;;;;;;;17.17;6.67;;;5.30;84.40;;;;;;5117340;27;20634;-75
2021/12/19 03:32:57;;;;;;;18.57;7.83;;;5.30;84.40;;;;;;5120107;27;20199;-76
2021/12/19 03:35:27;;;;;;;12.67;6.50;;;5.30;84.50;;;;;;5115028;27;20220;-74
2021/12/19 03:37:55;;;;;;;15.33;6.70;;;5.30;84.60;;;;;;5117014;27;20220;-75
2021/12/19 03:40:34;;;;;;;13.67;7.17;;;5.30;84.40;;;;;;5122508;27;20202;-75
2021/12/19 03:43:06;;;;;;;22.17;7.10;;;5.30;84.40;;;;;;5123431;27;20192;-75
2021/12/19 03:45:35;;;;;;;19.40;7.43;;;5.30;84.30;;;;;;5124298;27;20654;-75
2021/12/19 03:48:08;;;;;;;19.50;6.87;;;5.30;84.30;;;;;;5126931;27;20204;-74
2021/12/19 03:50:36;;;;;;;17.93;7.30;;;5.20;84.40;;;;;;5123221;27;20552;-75
2021/12/19 03:53:05;;;;;;;18.47;6.60;;;5.20;84.50;;;;;;5123081;27;20221;-75
2021/12/19 03:55:33;;;;;;;16.30;6.57;;;5.30;84.70;;;;;;5126000;27;20204;-75
2021/12/19 03:58:03;;;;;;;10.43;5.63;;;5.20;84.40;;;;;;5125197;27;20220;-75
2021/12/19 04:00:33;;;;;;;15.10;7.53;;;5.20;84.20;;;;;;5123355;27;20553;-75
2021/12/19 04:03:04;;;;;;;16.60;6.33;;;5.20;84.20;;;;;;5121074;27;20245;-75
2021/12/19 04:05:33;;;;;;;19.50;7.37;;;5.20;84.20;;;;;;5121292;27;20188;-75
2021/12/19 04:08:01;;;;;;;13.63;7.03;;;5.20;84.20;;;;;;5123628;27;20199;-75
2021/12/19 04:10:30;;;;;;;19.67;7.80;;;5.20;84.30;;;;;;5114989;27;20472;-75
2021/12/19 04:13:00;;;;;;;10.53;5.80;;;5.20;84.10;;;;;;5122600;27;20230;-75
2021/12/19 04:15:28;;;;;;;19.83;7.40;;;5.20;83.90;;;;;;5122254;27;20284;-75
2021/12/19 04:17:58;;;;;;;12.83;6.77;;;5.20;83.80;;;;;;5125646;27;20212;-75
2021/12/19 04:20:27;;;;;;;14.67;6.83;;;5.20;83.70;;;;;;5124525;27;20682;-75
2021/12/19 04:22:55;;;;;;;18.07;7.40;;;5.20;83.70;;;;;;5121630;27;20211;-75
2021/12/19 04:25:24;;;;;;;17.07;7.33;;;5.20;83.60;;;;;;5120565;27;20552;-75
2021/12/19 04:27:52;;;;;;;15.37;7.23;;;5.20;83.30;;;;;;5122905;27;20217;-75
2021/12/19 04:30:23;;;;;;;16.93;7.10;;;5.20;83.20;;;;;;5123766;27;20188;-75
2021/12/19 04:32:59;;;;;;;16.47;7.37;;;5.20;83.30;;;;;;5124473;27;20195;-75
2021/12/19 04:35:33;;;;;;;12.83;7.30;;;5.10;83.30;;;;;;5123734;27;20195;-76
2021/12/19 04:41:07;;;;;;;13.73;7.00;;;5.10;83.50;;;;;;5111487;27;20701;-76
2021/12/19 04:55:12;;;;;;;16.73;7.83;;;4.90;83.20;;;;;;5107894;27;20543;-75
2021/12/19 04:57:47;;;;;;;14.50;8.30;;;4.90;83.30;;;;;;5121351;27;20189;-75
2021/12/19 05:00:17;;;;;;;15.53;7.57;;;4.90;83.40;;;;;;5121495;27;20286;-75
2021/12/19 05:02:52;;;;;;;17.10;7.73;;;4.90;83.50;;;;;;5123935;27;20192;-75
2021/12/19 05:05:46;;;;;;;17.63;8.30;;;4.80;83.40;;;;;;5119716;27;20180;-75
2021/12/19 05:14:08;;;;;;;21.87;7.70;;;4.80;83.50;;;;;;5124038;27;20193;-75
2021/12/19 05:16:39;;;;;;;15.70;8.70;;;4.70;83.50;;;;;;5118138;27;20201;-76
2021/12/19 05:19:18;;;;;;;18.43;9.83;;;4.70;83.50;;;;;;5121573;27;20207;-76
2021/12/19 05:21:47;;;;;;;18.73;9.07;;;4.60;83.60;;;;;;5122408;27;20188;-76
2021/12/19 05:24:45;;;;;;;16.23;8.67;;;4.70;83.80;;;;;;5120693;27;20192;-76
2021/12/19 05:27:14;;;;;;;19.33;9.83;;;4.70;83.80;;;;;;5119069;27;20184;-76
2021/12/19 05:29:42;;;;;;;17.63;9.27;;;4.70;83.90;;;;;;5122582;27;20192;-76
2021/12/19 05:32:11;;;;;;;19.30;10.30;;;4.70;83.90;;;;;;5117748;27;20250;-75
2021/12/19 05:34:40;;;;;;;22.03;10.30;;;4.60;84.00;;;;;;5121027;27;20215;-75
2021/12/19 05:45:27;;;;;;;34.40;12.87;;;4.60;84.10;;;;;;5122520;27;20235;-76
2021/12/19 05:47:56;;;;;;;43.77;13.33;;;4.60;84.10;;;;;;5122593;27;20207;-76
2021/12/19 05:50:25;;;;;;;25.10;11.53;;;4.60;84.20;;;;;;5122183;27;20912;-76
2021/12/19 05:52:54;;;;;;;26.77;12.23;;;4.50;84.10;;;;;;5119802;28;20196;-76
2021/12/19 05:55:23;;;;;;;24.73;11.93;;;4.50;84.10;;;;;;5122286;27;20200;-75
2021/12/19 05:57:52;;;;;;;26.40;11.13;;;4.50;84.20;;;;;;5122533;27;20200;-75
2021/12/19 06:00:20;;;;;;;22.17;11.10;;;4.50;84.30;;;;;;5122312;27;20223;-75
2021/12/19 06:02:49;;;;;;;18.30;9.30;;;4.40;84.10;;;;;;5122706;27;20188;-75
2021/12/19 06:05:18;;;;;;;19.17;10.53;;;4.40;84.00;;;;;;5121764;28;20208;-75
2021/12/19 06:07:46;;;;;;;21.97;9.80;;;4.40;83.90;;;;;;5119504;27;20196;-75
2021/12/19 06:10:15;;;;;;;21.37;10.37;;;4.40;83.90;;;;;;5118258;27;20195;-75
2021/12/19 06:12:45;;;;;;;27.00;10.90;;;4.30;83.90;;;;;;5119887;27;20196;-76
2021/12/19 06:15:14;;;;;;;18.10;9.87;;;4.30;84.00;;;;;;5108195;27;20657;-75
2021/12/19 06:17:45;;;;;;;19.00;9.63;;;4.20;84.00;;;;;;5122069;28;20204;-74
2021/12/19 06:20:14;;;;;;;26.60;10.30;;;4.20;84.20;;;;;;5120589;28;20215;-75
2021/12/19 06:22:42;;;;;;;23.87;10.70;;;4.20;84.30;;;;;;5123404;27;20214;-75
2021/12/19 06:25:11;;;;;;;22.33;10.17;;;4.20;84.60;;;;;;5127690;27;20198;-75
2021/12/19 06:27:40;;;;;;;23.87;9.97;;;4.20;84.70;;;;;;5126712;27;20190;-76
2021/12/19 06:30:11;;;;;;;27.80;11.73;;;4.20;84.90;;;;;;5126572;27;20191;-75
2021/12/19 06:32:40;;;;;;;21.67;11.07;;;4.10;85.00;;;;;;5127763;27;20769;-75
2021/12/19 06:35:17;;;;;;;20.90;10.90;;;4.10;85.10;;;;;;5127622;27;20186;-76
2021/12/19 06:37:47;;;;;;;19.63;10.30;;;4.10;85.10;;;;;;5126529;27;20621;-75
2021/12/19 06:40:18;;;;;;;22.40;10.90;;;4.10;85.10;;;;;;5129169;27;20217;-75
2021/12/19 06:42:46;;;;;;;31.23;11.10;;;4.00;85.10;;;;;;5133685;27;20184;-75
2021/12/19 06:45:19;;;;;;;23.27;11.07;;;4.00;85.20;;;;;;5126922;27;20341;-75
2021/12/19 06:47:47;;;;;;;18.97;10.53;;;3.90;85.40;;;;;;5127022;27;20180;-75
2021/12/19 06:50:18;;;;;;;27.63;11.37;;;3.90;85.50;;;;;;5125765;27;20198;-75
2021/12/19 06:52:47;;;;;;;20.80;10.63;;;3.90;85.70;;;;;;5125606;27;20199;-78
2021/12/19 06:55:17;;;;;;;21.43;10.23;;;3.80;85.90;;;;;;5127045;27;20211;-75
2021/12/19 06:57:46;;;;;;;23.33;10.93;;;3.80;86.10;;;;;;5122825;27;20896;-75
2021/12/19 07:00:18;;;;;;;21.73;11.40;;;3.80;86.20;;;;;;5127447;27;20231;-75
2021/12/19 07:02:46;;;;;;;24.10;11.00;;;3.70;86.40;;;;;;5125619;27;20198;-75
2021/12/19 07:05:15;;;;;;;22.37;10.33;;;3.70;86.60;;;;;;5126449;27;20273;-76
2021/12/19 07:07:43;;;;;;;28.47;12.47;;;3.70;86.70;;;;;;5125250;27;20185;-75
2021/12/19 07:10:12;;;;;;;24.43;12.27;;;3.70;86.70;;;;;;5124307;27;20202;-76
2021/12/19 07:12:40;;;;;;;29.53;12.23;;;3.70;87.00;;;;;;5125321;27;20182;-74
2021/12/19 07:15:09;;;;;;;32.90;12.90;;;3.70;87.30;;;;;;5125273;27;20191;-75
2021/12/19 07:17:39;;;;;;;33.47;14.60;;;3.70;87.60;;;;;;5125406;27;20188;-75
2021/12/19 07:20:08;;;;;;;31.00;13.50;;;3.70;88.20;;;;;;5125566;27;20296;-77
2021/12/19 07:22:37;;;;;;;35.13;13.17;;;3.70;88.20;;;;;;5124448;27;20198;-76
2021/12/19 07:25:06;;;;;;;23.57;13.43;;;3.70;88.30;;;;;;5127083;27;20191;-75
2021/12/19 07:27:34;;;;;;;29.40;13.80;;;3.80;88.70;;;;;;5126087;27;20526;-76
2021/12/19 07:30:04;;;;;;;30.27;14.77;;;3.80;88.80;;;;;;5126809;27;20282;-76
2021/12/19 07:32:34;;;;;;;30.97;15.27;;;3.90;89.10;;;;;;5127436;27;20186;-76
2021/12/19 07:35:22;;;;;;;27.27;14.43;;;4.00;89.10;;;;;;5124826;27;20640;-77
2021/12/19 07:37:54;;;;;;;24.10;12.93;;;4.10;89.00;;;;;;5128311;27;20181;-76
2021/12/19 07:40:26;;;;;;;28.57;14.47;;;4.10;89.00;;;;;;5121682;27;20276;-74
2021/12/19 07:42:58;;;;;;;29.00;16.17;;;4.20;89.00;;;;;;5126828;27;20780;-76
2021/12/19 07:45:26;;;;;;;31.87;14.80;;;4.20;89.30;;;;;;5124439;27;20222;-76
2021/12/19 07:47:54;;;;;;;27.13;14.53;;;4.30;89.30;;;;;;5126829;27;20199;-76
2021/12/19 07:50:25;;;;;;;24.17;13.07;;;4.30;89.00;;;;;;5125470;27;20275;-76
2021/12/19 07:52:53;;;;;;;24.87;12.60;;;4.40;88.80;;;;;;5125680;27;20188;-76
2021/12/19 07:55:22;;;;;;;21.47;12.40;;;4.50;88.90;;;;;;5119793;27;20202;-76
2021/12/19 07:57:51;;;;;;;27.30;13.23;;;4.50;88.70;;;;;;5122950;27;20203;-76
2021/12/19 08:00:20;;;;;;;23.70;12.83;;;4.60;88.70;;;;;;5123567;27;20242;-76
2021/12/19 08:02:50;;;;;;;22.60;12.20;;;4.60;88.50;;;;;;5123251;27;20188;-75
2021/12/19 08:05:21;;;;;;;22.73;13.43;;;4.60;88.40;;;;;;5125642;27;20294;-75
2021/12/19 08:07:56;;;;;;;23.00;12.77;;;4.60;88.50;;;;;;5123072;27;20283;-76
2021/12/19 08:13:10;;;;;;;27.50;13.77;;;4.70;88.50;;;;;;5128852;27;20184;-76
2021/12/19 08:15:39;;;;;;;23.17;13.37;;;4.70;88.50;;;;;;5124691;27;20189;-75
2021/12/19 08:18:07;;;;;;;24.50;12.50;;;4.70;88.80;;;;;;5125158;27;20215;-76
2021/12/19 08:20:36;;;;;;;26.60;12.50;;;4.60;88.50;;;;;;5125573;27;20222;-78
2021/12/19 08:23:06;;;;;;;24.57;13.13;;;4.60;89.20;;;;;;5123643;27;20558;-77
2021/12/19 08:25:34;;;;;;;23.73;13.40;;;4.70;88.20;;;;;;5123574;27;20192;-76
2021/12/19 08:28:03;;;;;;;24.57;12.40;;;4.70;88.20;;;;;;5124287;27;20192;-76
2021/12/19 08:30:31;;;;;;;21.80;12.67;;;4.60;88.20;;;;;;5105089;28;20197;-78
2021/12/19 08:32:59;;;;;;;23.77;13.95;;;4.60;88.50;;;;;;5120497;27;20977;-77
2021/12/19 08:35:28;;;;;;;24.70;12.93;;;4.70;89.60;;;;;;5125290;27;20705;-77
2021/12/19 08:37:56;;;;;;;20.17;11.53;;;4.80;88.70;;;;;;5122505;27;20212;-76
2021/12/19 08:40:27;;;;;;;21.90;12.07;;;4.80;88.70;;;;;;5120289;27;20302;-77
2021/12/19 08:42:57;;;;;;;18.77;11.27;;;4.90;88.50;;;;;;5121593;27;20212;-77
2021/12/19 08:45:26;;;;;;;20.30;10.60;;;5.00;88.20;;;;;;5122743;27;20216;-77
2021/12/19 08:47:54;;;;;;;22.13;11.77;;;5.00;87.90;;;;;;5124643;27;20195;-76
2021/12/19 08:50:23;;;;;;;20.27;10.87;;;5.10;87.90;;;;;;5124771;27;20195;-76
2021/12/19 08:52:52;;;;;;;22.43;12.50;;;5.20;87.40;;;;;;5126754;27;20203;-77
2021/12/19 08:55:21;;;;;;;19.30;10.70;;;5.20;87.20;;;;;;5127652;27;20188;-76
2021/12/19 08:57:51;;;;;;;19.27;10.43;;;5.30;86.90;;;;;;5126231;27;20204;-76
2021/12/19 09:00:20;;;;;;;19.23;10.67;;;5.40;86.80;;;;;;5124339;27;20208;-75
2021/12/19 09:02:51;;;;;;;21.43;10.67;;;5.50;86.00;;;;;;5123914;27;20192;-75
2021/12/19 09:05:21;;;;;;;21.43;10.40;;;5.60;86.00;;;;;;5124159;27;20172;-76
2021/12/19 09:07:51;;;;;;;20.93;11.90;;;5.70;85.80;;;;;;5124531;27;20197;-75
2021/12/19 09:10:20;;;;;;;19.47;10.83;;;5.80;85.90;;;;;;5125880;27;20193;-76
2021/12/19 09:12:50;;;;;;;25.53;11.70;;;5.90;85.80;;;;;;5125052;27;20181;-76
2021/12/19 09:15:19;;;;;;;19.20;11.37;;;5.90;84.90;;;;;;5124738;27;20185;-77
2021/12/19 09:17:47;;;;;;;20.60;11.87;;;6.00;84.70;;;;;;5124308;27;20195;-76
2021/12/19 09:20:16;;;;;;;23.33;11.47;;;6.10;83.80;;;;;;5124587;27;20191;-76
2021/12/19 09:22:45;;;;;;;20.57;11.00;;;6.10;83.70;;;;;;5124983;27;20184;-76
2021/12/19 09:25:19;;;;;;;25.87;12.07;;;6.20;84.00;;;;;;5123114;27;20654;-76
2021/12/19 09:27:47;;;;;;;22.90;12.43;;;6.30;84.10;;;;;;5115939;27;20201;-75
2021/12/19 09:30:18;;;;;;;22.40;10.93;;;6.40;83.50;;;;;;5113124;27;21739;-75
2021/12/19 09:32:47;;;;;;;16.40;10.10;;;6.50;83.30;;;;;;5122387;27;20185;-76
2021/12/19 09:35:16;;;;;;;22.07;11.23;;;6.60;83.50;;;;;;5122978;27;20182;-77
2021/12/19 09:37:44;;;;;;;26.37;11.30;;;6.70;82.20;;;;;;5122119;27;20185;-76
2021/12/19 09:40:19;;;;;;;19.23;10.13;;;6.80;82.30;;;;;;5124065;27;20194;-78
2021/12/19 09:42:50;;;;;;;21.67;11.00;;;7.00;82.00;;;;;;5123965;27;20209;-76
2021/12/19 09:45:20;;;;;;;15.70;10.03;;;7.10;81.70;;;;;;5123486;27;20851;-76
2021/12/19 09:47:49;;;;;;;19.60;11.53;;;7.20;80.00;;;;;;5122210;27;20196;-78
2021/12/19 09:50:17;;;;;;;15.17;9.37;;;7.30;80.30;;;;;;5123259;27;20197;-77
2021/12/19 09:52:46;;;;;;;20.20;9.83;;;7.30;79.40;;;;;;5123669;27;20187;-77
2021/12/19 09:55:17;;;;;;;19.33;9.57;;;7.40;79.80;;;;;;5123270;27;20277;-75
2021/12/19 09:57:45;;;;;;;20.83;9.67;;;7.50;79.60;;;;;;5121657;27;20187;-76
2021/12/19 10:00:15;;;;;;;15.50;9.83;;;7.50;78.40;;;;;;5124280;27;20217;-76
2021/12/19 10:02:45;;;;;;;17.97;9.83;;;7.60;78.30;;;;;;5122410;27;20208;-77
2021/12/19 10:05:19;;;;;;;17.10;9.60;;;7.70;78.60;;;;;;5123023;27;20173;-75
2021/12/19 10:07:50;;;;;;;19.87;9.57;;;7.80;78.60;;;;;;5124023;28;20228;-75
2021/12/19 10:10:28;;;;;;;18.20;9.63;;;7.80;78.10;;;;;;5123877;27;20273;-76
2021/12/19 10:12:59;;;;;;;16.20;9.60;;;7.90;78.60;;;;;;5124417;28;20194;-75
2021/12/19 10:15:33;;;;;;;17.97;10.23;;;7.90;78.90;;;;;;5122072;27;20184;-77
2021/12/19 10:18:08;;;;;;;17.00;10.27;;;8.10;79.00;;;;;;5115305;28;20184;-76
2021/12/19 10:20:46;;;;;;;15.97;9.67;;;8.10;78.80;;;;;;5122974;27;20176;-74
2021/12/19 10:23:17;;;;;;;19.40;9.40;;;8.20;78.90;;;;;;5109854;28;20267;-77
2021/12/19 10:25:56;;;;;;;15.80;9.03;;;8.30;78.50;;;;;;5123954;27;20177;-75
2021/12/19 10:28:24;;;;;;;19.23;9.57;;;8.30;78.30;;;;;;5122853;27;20761;-76
2021/12/19 10:30:53;;;;;;;17.20;9.80;;;8.30;78.20;;;;;;5124117;27;20526;-76
2021/12/19 10:33:26;;;;;;;13.73;8.80;;;8.40;78.20;;;;;;5124352;27;20290;-76
2021/12/19 10:35:56;;;;;;;14.30;7.97;;;8.40;77.70;;;;;;5102918;28;20181;-77
2021/12/19 10:38:26;;;;;;;20.00;8.83;;;8.40;77.90;;;;;;5116511;28;20185;-77
2021/12/19 10:40:58;;;;;;;19.83;9.67;;;8.40;77.60;;;;;;5123964;27;20192;-80
2021/12/19 10:43:30;;;;;;;21.03;9.97;;;8.40;77.60;;;;;;5122318;27;20212;-77
2021/12/19 10:46:00;;;;;;;13.50;8.67;;;8.40;77.50;;;;;;5121287;27;20224;-77
2021/12/19 10:48:31;;;;;;;18.47;8.83;;;8.30;77.70;;;;;;5124041;27;20196;-78
2021/12/19 10:51:02;;;;;;;15.10;8.10;;;8.20;77.60;;;;;;5122877;27;20180;-76
2021/12/19 10:53:35;;;;;;;13.80;7.97;;;8.20;78.10;;;;;;5124001;27;20218;-77
2021/12/19 10:56:07;;;;;;;16.70;8.57;;;8.20;78.10;;;;;;5123850;28;20277;-79
2021/12/19 10:58:44;;;;;;;11.63;7.43;;;8.20;78.40;;;;;;5124546;28;20180;-76
2021/12/19 11:01:17;;;;;;;15.20;8.00;;;8.30;78.90;;;;;;5126201;27;20184;-77
2021/12/19 11:03:59;;;;;;;11.33;7.37;;;8.30;78.80;;;;;;5128160;28;20280;-77
2021/12/19 11:06:38;;;;;;;11.53;6.83;;;8.40;78.90;;;;;;5130277;27;20212;-77
2021/12/19 11:09:10;;;;;;;13.83;7.73;;;8.40;78.20;;;;;;5128250;27;20180;-77
2021/12/19 11:11:47;;;;;;;13.30;6.90;;;8.40;78.50;;;;;;5130874;27;20173;-75
2021/12/19 11:14:17;;;;;;;13.85;7.70;;;8.40;77.60;;;;;;5128550;27;20458;-75
2021/12/19 11:16:49;;;;;;;12.23;6.27;;;8.50;76.90;;;;;;5127390;27;20189;-75
2021/12/19 11:19:19;;;;;;;13.07;5.90;;;8.40;76.80;;;;;;5127211;27;20192;-75
2021/12/19 11:22:08;;;;;;;10.40;5.43;;;8.50;76.90;;;;;;5121089;27;20220;-75
2021/12/19 11:24:37;;;;;;;12.13;5.97;;;8.50;76.70;;;;;;5126041;27;20192;-76
2021/12/19 11:27:09;;;;;;;8.93;5.40;;;8.50;76.70;;;;;;5127314;27;20681;-75
2021/12/19 11:29:39;;;;;;;10.63;5.57;;;8.60;76.90;;;;;;5128052;27;20234;-75
2021/12/19 11:32:09;;;;;;;11.27;5.70;;;8.60;76.60;;;;;;5126789;27;20191;-74
2021/12/19 11:34:57;;;;;;;9.43;5.67;;;8.60;76.70;;;;;;5127010;27;20209;-77
2021/12/19 11:37:28;;;;;;;9.80;5.93;;;8.70;77.00;;;;;;5107117;28;20204;-75
2021/12/19 11:39:57;;;;;;;9.63;5.67;;;8.70;77.20;;;;;;5124912;27;20181;-76
2021/12/19 11:42:32;;;;;;;9.17;5.83;;;8.70;77.20;;;;;;5127091;27;20216;-75
2021/12/19 11:45:18;;;;;;;11.87;6.23;;;8.70;77.30;;;;;;5126816;27;20700;-75
2021/12/19 11:47:51;;;;;;;13.50;6.40;;;8.60;77.30;;;;;;5126922;27;20188;-76
2021/12/19 11:50:26;;;;;;;16.03;6.63;;;8.70;77.40;;;;;;5127051;27;20189;-75
2021/12/19 11:52:57;;;;;;;12.27;6.17;;;8.60;76.90;;;;;;5126263;27;20180;-75
2021/12/19 11:55:33;;;;;;;10.57;6.30;;;8.60;76.90;;;;;;5126234;27;20177;-75
2021/12/19 11:58:39;;;;;;;15.10;6.47;;;8.70;77.30;;;;;;5125080;27;20184;-75
2021/12/19 12:01:11;;;;;;;11.53;5.60;;;8.80;77.80;;;;;;5125605;27;20191;-74
2021/12/19 12:03:51;;;;;;;9.03;5.97;;;8.70;77.10;;;;;;5125390;27;20208;-75
2021/12/19 12:06:36;;;;;;;11.20;6.53;;;8.80;77.30;;;;;;5125884;27;20189;-76
2021/12/19 12:09:19;;;;;;;14.83;6.20;;;8.80;77.60;;;;;;5124764;27;20696;-74
2021/12/19 12:12:10;;;;;;;11.30;6.53;;;8.70;77.80;;;;;;5120976;27;20184;-76
2021/12/19 12:14:42;;;;;;;11.77;6.77;;;8.70;77.90;;;;;;5123742;27;20188;-75
2021/12/19 12:17:16;;;;;;;14.77;6.53;;;8.80;78.20;;;;;;5125716;27;20172;-75
2021/12/19 12:19:48;;;;;;;14.80;7.13;;;8.80;78.00;;;;;;5122591;27;20194;-76
2021/12/19 12:22:37;;;;;;;12.40;6.83;;;8.80;78.00;;;;;;5124074;27;20211;-75
2021/12/19 12:25:12;;;;;;;12.43;6.43;;;8.90;78.00;;;;;;5125676;27;20180;-75
2021/12/19 12:27:42;;;;;;;13.83;7.20;;;8.90;78.10;;;;;;5125603;27;20233;-75
2021/12/19 12:30:13;;;;;;;14.33;7.03;;;9.00;77.70;;;;;;5124717;27;20712;-75
2021/12/19 12:32:42;;;;;;;11.80;6.47;;;9.00;77.90;;;;;;5124691;27;20246;-75
2021/12/19 12:35:12;;;;;;;13.47;6.93;;;9.00;78.20;;;;;;5122324;27;20634;-74
2021/12/19 12:37:43;;;;;;;10.20;6.10;;;9.00;78.00;;;;;;5124822;27;20208;-75
2021/12/19 12:40:19;;;;;;;13.80;6.70;;;9.10;77.80;;;;;;5125040;27;20180;-77
2021/12/19 12:42:59;;;;;;;10.70;5.80;;;9.10;77.60;;;;;;5124314;27;20203;-76
2021/12/19 12:45:30;;;;;;;14.07;6.07;;;9.10;77.20;;;;;;5124753;27;20220;-77
2021/12/19 12:47:58;;;;;;;14.50;5.97;;;9.20;77.40;;;;;;5118400;27;20336;-75
2021/12/19 12:50:27;;;;;;;15.77;6.00;;;9.10;77.20;;;;;;5118661;27;20210;-76
2021/12/19 12:52:58;;;;;;;12.37;6.47;;;9.20;77.50;;;;;;5120672;27;20752;-75
2021/12/19 12:55:27;;;;;;;14.23;7.13;;;9.20;77.80;;;;;;5124138;27;20618;-75
2021/12/19 12:57:55;;;;;;;7.90;5.20;;;9.30;77.90;;;;;;5122626;27;20188;-76
2021/12/19 13:00:26;;;;;;;10.83;5.80;;;9.40;77.50;;;;;;5124593;27;20188;-75
2021/12/19 13:03:10;;;;;;;11.97;6.17;;;9.50;77.00;;;;;;5125177;27;20212;-75
2021/12/19 13:05:39;;;;;;;9.77;5.37;;;9.50;76.20;;;;;;5123008;27;20172;-75
2021/12/19 13:08:20;;;;;;;11.10;5.83;;;9.60;76.90;;;;;;5123864;27;20189;-74
2021/12/19 13:10:52;;;;;;;12.10;5.70;;;9.80;77.50;;;;;;5123849;27;20188;-75
2021/12/19 13:13:26;;;;;;;11.63;6.37;;;10.00;77.20;;;;;;5124396;27;20181;-74
2021/12/19 13:16:04;;;;;;;10.87;5.23;;;10.00;75.70;;;;;;5125213;27;20182;-75
2021/12/19 13:18:44;;;;;;;9.27;5.30;;;10.20;76.00;;;;;;5124271;27;20188;-76
2021/12/19 13:21:12;;;;;;;11.27;5.30;;;10.30;75.10;;;;;;5124139;27;20257;-76
2021/12/19 13:23:42;;;;;;;11.53;6.83;;;10.60;74.70;;;;;;5124412;27;20216;-76
2021/12/19 13:26:10;;;;;;;13.43;7.17;;;11.10;72.90;;;;;;5128905;27;20192;-75
2021/12/19 13:28:39;;;;;;;11.17;6.03;;;12.10;70.70;;;;;;5123522;27;20196;-75
2021/12/19 13:31:07;;;;;;;8.30;5.20;;;13.00;67.40;;;;;;5123250;27;20233;-73
2021/12/19 13:33:37;;;;;;;7.87;5.00;;;15.60;61.90;;;;;;5122370;27;20180;-75
2021/12/19 13:36:05;;;;;;;12.17;6.87;;;17.00;56.40;;;;;;5123603;27;20196;-74
2021/12/19 13:38:34;;;;;;;9.37;5.73;;;16.50;57.30;;;;;;5123054;27;20211;-74
2021/12/19 13:41:05;;;;;;;12.23;5.90;;;17.40;56.20;;;;;;5123622;27;20196;-75
2021/12/19 13:43:35;;;;;;;11.43;5.10;;;17.70;55.60;;;;;;5121579;27;20712;-74
2021/12/19 13:46:06;;;;;;;10.87;5.10;;;17.60;54.60;;;;;;5102192;28;20228;-74
2021/12/19 13:48:42;;;;;;;11.60;5.07;;;17.50;55.90;;;;;;5102726;28;20177;-74
2021/12/19 13:51:13;;;;;;;9.88;4.40;;;18.70;52.60;;;;;;5101813;28;20204;-75
2021/12/19 13:53:45;;;;;;;7.53;4.63;;;19.40;50.30;;;;;;5114942;27;20277;-75
2021/12/19 13:56:18;;;;;;;8.20;4.40;;;19.60;49.10;;;;;;5124220;27;20229;-75